sensor_id;sensor_type;location;lat;lon;timestamp;pressure;altitude;pressure_sealevel;temperature;humidity
78671;BME280;68277;52.724;6.516;2023-08-31T00:01:55;100653.47;;;11.08;100.00
78671;BME280;68277;52.724;6.516;2023-08-31T00:04:21;100674.41;;;11.17;100.00
78671;BME280;68277;52.724;6.516;2023-08-31T00:06:46;100668.28;;;11.15;100.00
78671;BME280;68277;52.724;6.516;2023-08-31T00:09:12;100677.91;;;11.19;100.00
78671;BME280;68277;52.724;6.516;2023-08-31T00:11:37;100656.09;;;11.09;100.00
78671;BME280;68277;52.724;6.516;2023-08-31T00:14:04;100666.50;;;11.15;100.00
78671;BME280;68277;52.724;6.516;2023-08-31T00:16:30;100694.38;;;11.30;100.00
78671;BME280;68277;52.724;6.516;2023-08-31T00:18:56;100650.81;;;11.09;100.00
78671;BME280;68277;52.724;6.516;2023-08-31T00:21:22;100694.97;;;11.39;100.00
78671;BME280;68277;52.724;6.516;2023-08-31T00:23:48;100693.09;;;11.43;100.00
78671;BME280;68277;52.724;6.516;2023-08-31T00:26:14;100654.72;;;11.27;100.00
78671;BME280;68277;52.724;6.516;2023-08-31T00:28:41;100636.09;;;11.30;100.00
78671;BME280;68277;52.724;6.516;2023-08-31T00:31:08;100653.34;;;11.43;100.00
78671;BME280;68277;52.724;6.516;2023-08-31T00:33:34;100672.34;;;11.58;100.00
78671;BME280;68277;52.724;6.516;2023-08-31T00:36:05;100674.03;;;11.61;100.00
78671;BME280;68277;52.724;6.516;2023-08-31T00:38:32;100635.63;;;11.45;100.00
78671;BME280;68277;52.724;6.516;2023-08-31T00:40:57;100653.19;;;11.49;100.00
78671;BME280;68277;52.724;6.516;2023-08-31T00:43:23;100670.47;;;11.62;100.00
78671;BME280;68277;52.724;6.516;2023-08-31T00:45:51;100663.47;;;11.59;100.00
78671;BME280;68277;52.724;6.516;2023-08-31T00:48:19;100650.44;;;11.52;100.00
78671;BME280;68277;52.724;6.516;2023-08-31T00:50:46;100654.88;;;11.51;100.00
78671;BME280;68277;52.724;6.516;2023-08-31T00:53:12;100661.88;;;11.54;100.00
78671;BME280;68277;52.724;6.516;2023-08-31T00:55:37;100651.44;;;11.48;100.00
78671;BME280;68277;52.724;6.516;2023-08-31T00:58:14;100658.34;;;11.53;100.00
78671;BME280;68277;52.724;6.516;2023-08-31T01:00:50;100669.72;;;11.57;100.00
78671;BME280;68277;52.724;6.516;2023-08-31T01:03:42;100661.91;;;11.52;100.00
78671;BME280;68277;52.724;6.516;2023-08-31T01:06:18;100633.09;;;11.40;100.00
78671;BME280;68277;52.724;6.516;2023-08-31T01:08:50;100661.91;;;11.52;100.00
78671;BME280;68277;52.724;6.516;2023-08-31T01:11:41;100645.41;;;11.43;100.00
78671;BME280;68277;52.724;6.516;2023-08-31T01:14:17;100651.44;;;11.48;100.00
78671;BME280;68277;52.724;6.516;2023-08-31T01:16:49;100655.03;;;11.45;100.00
78671;BME280;68277;52.724;6.516;2023-08-31T01:19:34;100652.47;;;11.44;100.00
78671;BME280;68277;52.724;6.516;2023-08-31T01:22:11;100637.66;;;11.37;100.00
78671;BME280;68277;52.724;6.516;2023-08-31T01:24:41;100657.69;;;11.45;100.00
78671;BME280;68277;52.724;6.516;2023-08-31T01:27:07;100657.84;;;11.41;100.00
78671;BME280;68277;52.724;6.516;2023-08-31T01:29:33;100640.50;;;11.29;100.00
78671;BME280;68277;52.724;6.516;2023-08-31T01:31:59;100640.59;;;11.26;100.00
78671;BME280;68277;52.724;6.516;2023-08-31T01:34:24;100656.19;;;11.37;100.00
78671;BME280;68277;52.724;6.516;2023-08-31T01:36:56;100652.81;;;11.32;100.00
78671;BME280;68277;52.724;6.516;2023-08-31T01:39:28;100627.59;;;11.17;100.00
78671;BME280;68277;52.724;6.516;2023-08-31T01:41:57;100618.16;;;11.07;100.00
78671;BME280;68277;52.724;6.516;2023-08-31T01:44:27;100633.09;;;11.11;100.00
78671;BME280;68277;52.724;6.516;2023-08-31T01:47:02;100626.84;;;11.14;100.00
78671;BME280;68277;52.724;6.516;2023-08-31T01:49:28;100602.41;;;11.02;100.00
78671;BME280;68277;52.724;6.516;2023-08-31T01:51:56;100647.63;;;11.27;100.00
78671;BME280;68277;52.724;6.516;2023-08-31T01:54:21;100606.00;;;11.02;100.00
78671;BME280;68277;52.724;6.516;2023-08-31T01:56:47;100627.66;;;11.16;100.00
78671;BME280;68277;52.724;6.516;2023-08-31T01:59:12;100629.47;;;11.14;100.00
78671;BME280;68277;52.724;6.516;2023-08-31T02:01:38;100643.50;;;11.17;100.00
78671;BME280;68277;52.724;6.516;2023-08-31T02:04:03;100628.81;;;11.06;100.00
78671;BME280;68277;52.724;6.516;2023-08-31T02:06:29;100624.53;;;11.00;100.00
78671;BME280;68277;52.724;6.516;2023-08-31T02:08:54;100645.44;;;11.11;100.00
78671;BME280;68277;52.724;6.516;2023-08-31T02:11:20;100647.28;;;11.09;100.00
78671;BME280;68277;52.724;6.516;2023-08-31T02:13:46;100620.38;;;10.91;100.00
78671;BME280;68277;52.724;6.516;2023-08-31T02:16:11;100596.06;;;10.77;100.00
78671;BME280;68277;52.724;6.516;2023-08-31T02:18:37;100631.72;;;10.96;100.00
78671;BME280;68277;52.724;6.516;2023-08-31T02:21:02;100618.00;;;10.82;100.00
78671;BME280;68277;52.724;6.516;2023-08-31T02:23:29;100604.06;;;10.76;100.00
78671;BME280;68277;52.724;6.516;2023-08-31T02:25:54;100636.22;;;10.93;100.00
78671;BME280;68277;52.724;6.516;2023-08-31T02:28:20;100595.50;;;10.66;100.00
78671;BME280;68277;52.724;6.516;2023-08-31T02:30:57;100597.38;;;10.61;100.00
78671;BME280;68277;52.724;6.516;2023-08-31T02:33:23;100605.19;;;10.66;100.00
78671;BME280;68277;52.724;6.516;2023-08-31T02:35:50;100595.63;;;10.62;100.00
78671;BME280;68277;52.724;6.516;2023-08-31T02:38:16;100636.59;;;10.79;100.00
78671;BME280;68277;52.724;6.516;2023-08-31T02:40:46;100607.16;;;10.59;100.00
78671;BME280;68277;52.724;6.516;2023-08-31T02:43:11;100605.59;;;10.51;100.00
78671;BME280;68277;52.724;6.516;2023-08-31T02:45:37;100638.59;;;10.70;100.00
78671;BME280;68277;52.724;6.516;2023-08-31T02:48:02;100615.16;;;10.56;100.00
78671;BME280;68277;52.724;6.516;2023-08-31T02:50:29;100627.38;;;10.60;100.00
78671;BME280;68277;52.724;6.516;2023-08-31T02:52:54;100609.19;;;10.48;100.00
78671;BME280;68277;52.724;6.516;2023-08-31T02:55:20;100612.69;;;10.50;100.00
78671;BME280;68277;52.724;6.516;2023-08-31T02:57:46;100615.28;;;10.52;100.00
78671;BME280;68277;52.724;6.516;2023-08-31T03:00:12;100619.75;;;10.48;100.00
78671;BME280;68277;52.724;6.516;2023-08-31T03:02:39;100624.97;;;10.53;100.00
78671;BME280;68277;52.724;6.516;2023-08-31T03:05:05;100620.81;;;10.41;100.00
78671;BME280;68277;52.724;6.516;2023-08-31T03:07:31;100627.81;;;10.45;100.00
78671;BME280;68277;52.724;6.516;2023-08-31T03:09:56;100613.00;;;10.37;100.00
78671;BME280;68277;52.724;6.516;2023-08-31T03:12:22;100600.84;;;10.29;100.00
78671;BME280;68277;52.724;6.516;2023-08-31T03:14:48;100586.00;;;10.24;100.00
78671;BME280;68277;52.724;6.516;2023-08-31T03:17:13;100627.75;;;10.47;100.00
78671;BME280;68277;52.724;6.516;2023-08-31T03:19:39;100633.69;;;10.56;100.00
78671;BME280;68277;52.724;6.516;2023-08-31T03:22:05;100630.22;;;10.54;100.00
78671;BME280;68277;52.724;6.516;2023-08-31T03:24:32;100641.56;;;10.58;100.00
78671;BME280;68277;52.724;6.516;2023-08-31T03:26:57;100598.13;;;10.32;100.00
78671;BME280;68277;52.724;6.516;2023-08-31T03:29:23;100604.19;;;10.38;100.00
78671;BME280;68277;52.724;6.516;2023-08-31T03:31:49;100643.31;;;10.59;100.00
78671;BME280;68277;52.724;6.516;2023-08-31T03:34:16;100598.06;;;10.34;100.00
78671;BME280;68277;52.724;6.516;2023-08-31T03:36:41;100614.53;;;10.47;100.00
78671;BME280;68277;52.724;6.516;2023-08-31T03:39:07;100595.38;;;10.37;100.00
78671;BME280;68277;52.724;6.516;2023-08-31T03:41:33;100600.53;;;10.42;100.00
78671;BME280;68277;52.724;6.516;2023-08-31T03:44:01;100638.91;;;10.59;100.00
78671;BME280;68277;52.724;6.516;2023-08-31T03:46:26;100606.81;;;10.38;100.00
78671;BME280;68277;52.724;6.516;2023-08-31T03:48:52;100641.56;;;10.58;100.00
78671;BME280;68277;52.724;6.516;2023-08-31T03:51:18;100625.16;;;10.45;100.00
78671;BME280;68277;52.724;6.516;2023-08-31T03:53:47;100644.31;;;10.55;100.00
78671;BME280;68277;52.724;6.516;2023-08-31T03:56:13;100616.47;;;10.40;100.00
78671;BME280;68277;52.724;6.516;2023-08-31T03:58:44;100624.34;;;10.42;100.00
78671;BME280;68277;52.724;6.516;2023-08-31T04:01:10;100641.78;;;10.50;100.00
78671;BME280;68277;52.724;6.516;2023-08-31T04:03:37;100641.69;;;10.53;100.00
78671;BME280;68277;52.724;6.516;2023-08-31T04:06:02;100611.22;;;10.37;100.00
78671;BME280;68277;52.724;6.516;2023-08-31T04:08:30;100649.63;;;10.53;100.00
78671;BME280;68277;52.724;6.516;2023-08-31T04:10:55;100600.06;;;10.26;100.00
78671;BME280;68277;52.724;6.516;2023-08-31T04:13:21;100641.69;;;10.53;100.00
78671;BME280;68277;52.724;6.516;2023-08-31T04:15:46;100639.97;;;10.51;100.00
78671;BME280;68277;52.724;6.516;2023-08-31T04:18:14;100641.66;;;10.55;100.00
78671;BME280;68277;52.724;6.516;2023-08-31T04:20:48;100634.91;;;10.43;100.00
78671;BME280;68277;52.724;6.516;2023-08-31T04:23:14;100637.63;;;10.40;100.00
78671;BME280;68277;52.724;6.516;2023-08-31T04:25:40;100644.63;;;10.41;100.00
78671;BME280;68277;52.724;6.516;2023-08-31T04:28:10;100637.66;;;10.39;100.00
78671;BME280;68277;52.724;6.516;2023-08-31T04:30:35;100644.63;;;10.43;100.00
78671;BME280;68277;52.724;6.516;2023-08-31T04:33:01;100660.31;;;10.50;100.00
78671;BME280;68277;52.724;6.516;2023-08-31T04:35:26;100670.72;;;10.56;100.00
78671;BME280;68277;52.724;6.516;2023-08-31T04:37:52;100655.91;;;10.49;100.00
78671;BME280;68277;52.724;6.516;2023-08-31T04:40:18;100629.81;;;10.36;100.00
78671;BME280;68277;52.724;6.516;2023-08-31T04:42:43;100651.44;;;10.51;100.00
78671;BME280;68277;52.724;6.516;2023-08-31T04:45:09;100684.44;;;10.72;100.00
78671;BME280;68277;52.724;6.516;2023-08-31T04:47:36;100685.16;;;10.78;100.00
78671;BME280;68277;52.724;6.516;2023-08-31T04:50:02;100663.25;;;10.73;100.00
78671;BME280;68277;52.724;6.516;2023-08-31T04:52:28;100664.88;;;10.77;100.00
78671;BME280;68277;52.724;6.516;2023-08-31T04:54:54;100685.81;;;10.88;100.00
78671;BME280;68277;52.724;6.516;2023-08-31T04:57:19;100657.06;;;10.73;100.00
78671;BME280;68277;52.724;6.516;2023-08-31T04:59:45;100682.28;;;10.87;100.00
78671;BME280;68277;52.724;6.516;2023-08-31T05:02:10;100670.88;;;10.85;100.00
78671;BME280;68277;52.724;6.516;2023-08-31T05:04:36;100668.22;;;10.85;100.00
78671;BME280;68277;52.724;6.516;2023-08-31T05:07:04;100685.44;;;11.02;100.00
78671;BME280;68277;52.724;6.516;2023-08-31T05:09:31;100673.28;;;10.93;100.00
78671;BME280;68277;52.724;6.516;2023-08-31T05:12:01;100689.03;;;10.97;100.00
78671;BME280;68277;52.724;6.516;2023-08-31T05:14:28;100710.78;;;11.10;100.00
78671;BME280;68277;52.724;6.516;2023-08-31T05:16:54;100688.91;;;11.04;100.00
78671;BME280;68277;52.724;6.516;2023-08-31T05:19:20;100699.28;;;11.11;100.00
78671;BME280;68277;52.724;6.516;2023-08-31T05:21:46;100696.72;;;11.08;100.00
78671;BME280;68277;52.724;6.516;2023-08-31T05:24:11;100704.53;;;11.13;100.00
78671;BME280;68277;52.724;6.516;2023-08-31T05:26:38;100691.34;;;11.11;100.00
78671;BME280;68277;52.724;6.516;2023-08-31T05:29:04;100690.34;;;11.15;100.00
78671;BME280;68277;52.724;6.516;2023-08-31T05:31:30;100711.97;;;11.32;100.00
78671;BME280;68277;52.724;6.516;2023-08-31T05:33:56;100730.19;;;11.44;100.00
78671;BME280;68277;52.724;6.516;2023-08-31T05:36:21;100724.78;;;11.47;100.00
78671;BME280;68277;52.724;6.516;2023-08-31T05:38:47;100725.50;;;11.54;100.00
78671;BME280;68277;52.724;6.516;2023-08-31T05:41:12;100705.25;;;11.50;100.00
78671;BME280;68277;52.724;6.516;2023-08-31T05:43:38;100653.47;;;11.40;100.00
78671;BME280;68277;52.724;6.516;2023-08-31T05:46:07;100722.59;;;12.49;100.00
78671;BME280;68277;52.724;6.516;2023-08-31T05:48:33;100697.13;;;13.22;100.00
78671;BME280;68277;52.724;6.516;2023-08-31T05:50:59;100744.50;;;13.84;96.74
78671;BME280;68277;52.724;6.516;2023-08-31T05:53:24;100692.44;;;13.30;97.24
78671;BME280;68277;52.724;6.516;2023-08-31T05:55:50;100748.06;;;13.35;98.46
78671;BME280;68277;52.724;6.516;2023-08-31T05:58:15;100735.97;;;13.00;100.00
78671;BME280;68277;52.724;6.516;2023-08-31T06:00:41;100751.28;;;12.92;100.00
78671;BME280;68277;52.724;6.516;2023-08-31T06:03:06;100746.06;;;12.89;100.00
78671;BME280;68277;52.724;6.516;2023-08-31T06:05:32;100768.53;;;13.07;100.00
78671;BME280;68277;52.724;6.516;2023-08-31T06:07:58;100761.47;;;13.06;100.00
78671;BME280;68277;52.724;6.516;2023-08-31T06:10:24;100766.00;;;13.02;100.00
78671;BME280;68277;52.724;6.516;2023-08-31T06:12:50;100748.22;;;12.78;100.00
78671;BME280;68277;52.724;6.516;2023-08-31T06:15:18;100771.97;;;12.82;100.00
78671;BME280;68277;52.724;6.516;2023-08-31T06:17:44;100750.16;;;12.99;100.00
78671;BME280;68277;52.724;6.516;2023-08-31T06:20:10;100741.28;;;13.51;100.00
78671;BME280;68277;52.724;6.516;2023-08-31T06:22:36;100756.13;;;14.72;96.66
78671;BME280;68277;52.724;6.516;2023-08-31T06:25:02;100739.00;;;14.99;92.60
78671;BME280;68277;52.724;6.516;2023-08-31T06:27:29;100785.31;;;14.75;94.81
78671;BME280;68277;52.724;6.516;2023-08-31T06:29:54;100773.91;;;14.27;97.63
78671;BME280;68277;52.724;6.516;2023-08-31T06:32:21;100793.28;;;14.07;98.20
78671;BME280;68277;52.724;6.516;2023-08-31T06:34:47;100758.25;;;13.71;99.42
78671;BME280;68277;52.724;6.516;2023-08-31T06:37:12;100773.50;;;13.66;100.00
78671;BME280;68277;52.724;6.516;2023-08-31T06:39:38;100761.91;;;13.44;100.00
78671;BME280;68277;52.724;6.516;2023-08-31T06:42:04;100780.69;;;13.40;100.00
78671;BME280;68277;52.724;6.516;2023-08-31T06:44:30;100762.91;;;13.16;100.00
78671;BME280;68277;52.724;6.516;2023-08-31T06:46:56;100799.25;;;13.15;100.00
78671;BME280;68277;52.724;6.516;2023-08-31T06:49:22;100769.97;;;12.89;100.00
78671;BME280;68277;52.724;6.516;2023-08-31T06:51:48;100808.34;;;13.08;100.00
78671;BME280;68277;52.724;6.516;2023-08-31T06:54:13;100800.38;;;13.08;100.00
78671;BME280;68277;52.724;6.516;2023-08-31T06:56:39;100807.00;;;14.20;100.00
78671;BME280;68277;52.724;6.516;2023-08-31T06:59:04;100807.16;;;15.27;95.82
78671;BME280;68277;52.724;6.516;2023-08-31T07:01:32;100784.66;;;15.94;92.03
78671;BME280;68277;52.724;6.516;2023-08-31T07:04:03;100800.22;;;16.61;88.97
78671;BME280;68277;52.724;6.516;2023-08-31T07:06:33;100798.41;;;17.16;84.10
78671;BME280;68277;52.724;6.516;2023-08-31T07:08:58;100766.00;;;17.04;84.70
78671;BME280;68277;52.724;6.516;2023-08-31T07:11:24;100769.97;;;16.79;86.02
78671;BME280;68277;52.724;6.516;2023-08-31T07:13:50;100809.69;;;16.68;90.06
78671;BME280;68277;52.724;6.516;2023-08-31T07:16:15;100785.47;;;16.33;92.06
78671;BME280;68277;52.724;6.516;2023-08-31T07:18:41;100784.13;;;16.81;89.05
78671;BME280;68277;52.724;6.516;2023-08-31T07:21:06;100772.00;;;17.09;87.34
78671;BME280;68277;52.724;6.516;2023-08-31T07:23:33;100803.50;;;17.03;89.42
78671;BME280;68277;52.724;6.516;2023-08-31T07:26:12;100824.72;;;17.42;83.55
78671;BME280;68277;52.724;6.516;2023-08-31T07:28:39;100805.81;;;18.62;81.32
78671;BME280;68277;52.724;6.516;2023-08-31T07:31:07;100815.31;;;20.45;71.46
78671;BME280;68277;52.724;6.516;2023-08-31T07:33:35;100808.44;;;20.41;69.36
78671;BME280;68277;52.724;6.516;2023-08-31T07:36:01;100821.25;;;19.64;77.42
78671;BME280;68277;52.724;6.516;2023-08-31T07:38:27;100798.44;;;18.96;74.51
78671;BME280;68277;52.724;6.516;2023-08-31T07:40:54;100828.94;;;18.14;78.82
78671;BME280;68277;52.724;6.516;2023-08-31T07:43:19;100790.56;;;16.94;84.42
78671;BME280;68277;52.724;6.516;2023-08-31T07:45:45;100820.50;;;17.02;88.35
78671;BME280;68277;52.724;6.516;2023-08-31T07:48:10;100813.66;;;17.14;84.05
78671;BME280;68277;52.724;6.516;2023-08-31T07:50:36;100811.56;;;17.37;88.22
78671;BME280;68277;52.724;6.516;2023-08-31T07:53:01;100827.00;;;18.66;81.16
78671;BME280;68277;52.724;6.516;2023-08-31T07:55:27;100819.78;;;20.03;74.71
78671;BME280;68277;52.724;6.516;2023-08-31T07:57:53;100797.72;;;20.54;71.34
78671;BME280;68277;52.724;6.516;2023-08-31T08:00:18;100809.16;;;21.91;65.63
78671;BME280;68277;52.724;6.516;2023-08-31T08:02:47;100828.53;;;21.18;69.72
78671;BME280;68277;52.724;6.516;2023-08-31T08:05:12;100813.75;;;21.10;69.96
78671;BME280;68277;52.724;6.516;2023-08-31T08:07:38;100799.41;;;21.76;67.12
78671;BME280;68277;52.724;6.516;2023-08-31T08:10:04;100829.75;;;22.17;63.58
78671;BME280;68277;52.724;6.516;2023-08-31T08:12:41;100805.22;;;20.35;67.84
78671;BME280;68277;52.724;6.516;2023-08-31T08:15:11;100817.91;;;19.00;77.74
78671;BME280;68277;52.724;6.516;2023-08-31T08:17:36;100822.91;;;18.75;77.69
78671;BME280;68277;52.724;6.516;2023-08-31T08:20:05;100845.44;;;18.88;79.85
78671;BME280;68277;52.724;6.516;2023-08-31T08:22:31;100814.84;;;20.53;73.30
78671;BME280;68277;52.724;6.516;2023-08-31T08:24:57;100842.00;;;20.77;71.44
78671;BME280;68277;52.724;6.516;2023-08-31T08:27:22;100819.31;;;21.61;64.33
78671;BME280;68277;52.724;6.516;2023-08-31T08:29:48;100845.50;;;22.11;60.59
78671;BME280;68277;52.724;6.516;2023-08-31T08:32:14;100854.09;;;21.25;63.77
78671;BME280;68277;52.724;6.516;2023-08-31T08:34:39;100842.50;;;20.41;72.33
78671;BME280;68277;52.724;6.516;2023-08-31T08:37:05;100853.59;;;21.32;65.60
78671;BME280;68277;52.724;6.516;2023-08-31T08:39:31;100850.28;;;21.80;65.69
78671;BME280;68277;52.724;6.516;2023-08-31T08:42:03;100855.31;;;21.33;62.04
78671;BME280;68277;52.724;6.516;2023-08-31T08:44:33;100841.28;;;20.32;69.88
78671;BME280;68277;52.724;6.516;2023-08-31T08:47:01;100840.09;;;19.49;72.44
78671;BME280;68277;52.724;6.516;2023-08-31T08:49:28;100841.38;;;19.87;72.77
78671;BME280;68277;52.724;6.516;2023-08-31T08:51:55;100867.25;;;19.88;72.83
78671;BME280;68277;52.724;6.516;2023-08-31T08:54:24;100851.59;;;19.51;74.60
78671;BME280;68277;52.724;6.516;2023-08-31T08:56:50;100864.38;;;19.16;75.49
78671;BME280;68277;52.724;6.516;2023-08-31T08:59:16;100835.66;;;18.56;76.31
78671;BME280;68277;52.724;6.516;2023-08-31T09:01:42;100878.66;;;18.20;78.60
78671;BME280;68277;52.724;6.516;2023-08-31T09:04:09;100823.75;;;17.26;79.60
78671;BME280;68277;52.724;6.516;2023-08-31T09:06:34;100871.13;;;17.24;79.93
78671;BME280;68277;52.724;6.516;2023-08-31T09:09:00;100884.91;;;17.15;81.40
78671;BME280;68277;52.724;6.516;2023-08-31T09:11:26;100869.06;;;16.93;82.74
78671;BME280;68277;52.724;6.516;2023-08-31T09:13:53;100891.41;;;17.28;81.68
78671;BME280;68277;52.724;6.516;2023-08-31T09:16:29;100859.06;;;19.30;72.90
78671;BME280;68277;52.724;6.516;2023-08-31T09:18:55;100838.94;;;20.40;70.70
78671;BME280;68277;52.724;6.516;2023-08-31T09:21:21;100870.72;;;21.70;67.75
78671;BME280;68277;52.724;6.516;2023-08-31T09:23:57;100836.16;;;21.64;68.23
78671;BME280;68277;52.724;6.516;2023-08-31T09:26:23;100875.38;;;20.87;70.70
78671;BME280;68277;52.724;6.516;2023-08-31T09:28:49;100856.75;;;20.13;72.68
78671;BME280;68277;52.724;6.516;2023-08-31T09:31:14;100846.56;;;19.90;72.58
78671;BME280;68277;52.724;6.516;2023-08-31T09:33:50;100846.88;;;19.70;71.37
78671;BME280;68277;52.724;6.516;2023-08-31T09:36:15;100860.16;;;19.87;70.36
78671;BME280;68277;52.724;6.516;2023-08-31T09:38:45;100853.88;;;19.27;70.21
78671;BME280;68277;52.724;6.516;2023-08-31T09:41:11;100853.72;;;20.33;69.68
78671;BME280;68277;52.724;6.516;2023-08-31T09:43:36;100865.47;;;20.47;69.70
78671;BME280;68277;52.724;6.516;2023-08-31T09:46:09;100873.41;;;19.60;67.46
78671;BME280;68277;52.724;6.516;2023-08-31T09:48:36;100888.25;;;19.36;73.04
78671;BME280;68277;52.724;6.516;2023-08-31T09:51:04;100884.97;;;19.31;72.63
78671;BME280;68277;52.724;6.516;2023-08-31T09:53:30;100855.31;;;20.08;69.55
78671;BME280;68277;52.724;6.516;2023-08-31T09:55:57;100888.47;;;20.93;65.04
78671;BME280;68277;52.724;6.516;2023-08-31T09:58:23;100863.19;;;21.36;65.93
78671;BME280;68277;52.724;6.516;2023-08-31T10:00:51;100879.75;;;21.57;64.34
78671;BME280;68277;52.724;6.516;2023-08-31T10:03:16;100889.41;;;20.92;68.73
78671;BME280;68277;52.724;6.516;2023-08-31T10:05:48;100842.91;;;19.91;64.46
78671;BME280;68277;52.724;6.516;2023-08-31T10:08:15;100846.38;;;19.63;70.13
78671;BME280;68277;52.724;6.516;2023-08-31T10:10:41;100864.88;;;19.54;69.82
78671;BME280;68277;52.724;6.516;2023-08-31T10:13:07;100848.91;;;19.66;69.55
78671;BME280;68277;52.724;6.516;2023-08-31T10:15:37;100856.47;;;20.04;68.01
78671;BME280;68277;52.724;6.516;2023-08-31T10:18:06;100858.16;;;20.49;66.91
78671;BME280;68277;52.724;6.516;2023-08-31T10:20:32;100853.41;;;20.80;67.25
78671;BME280;68277;52.724;6.516;2023-08-31T10:23:02;100872.34;;;20.22;68.38
78671;BME280;68277;52.724;6.516;2023-08-31T10:26:01;100928.97;;;18.65;72.06
78671;BME280;68277;52.724;6.516;2023-08-31T10:28:27;100918.03;;;16.93;76.52
78671;BME280;68277;52.724;6.516;2023-08-31T10:33:35;100908.56;;;15.89;78.62
78671;BME280;68277;52.724;6.516;2023-08-31T10:36:16;100925.97;;;15.97;80.16
78671;BME280;68277;52.724;6.516;2023-08-31T10:39:05;100911.31;;;15.87;84.60
78671;BME280;68277;52.724;6.516;2023-08-31T10:41:37;100906.50;;;15.75;81.59
78671;BME280;68277;52.724;6.516;2023-08-31T10:46:51;100930.50;;;16.35;85.34
78671;BME280;68277;52.724;6.516;2023-08-31T10:49:19;100900.69;;;16.44;84.33
78671;BME280;68277;52.724;6.516;2023-08-31T10:51:50;100909.72;;;16.62;80.90
78671;BME280;68277;52.724;6.516;2023-08-31T10:54:31;100930.91;;;16.67;82.09
78671;BME280;68277;52.724;6.516;2023-08-31T10:59:40;100916.72;;;16.44;80.82
78671;BME280;68277;52.724;6.516;2023-08-31T11:02:07;100905.66;;;16.13;83.33
78671;BME280;68277;52.724;6.516;2023-08-31T11:04:51;100919.50;;;16.23;90.17
78671;BME280;68277;52.724;6.516;2023-08-31T11:07:18;100927.00;;;16.15;84.21
78671;BME280;68277;52.724;6.516;2023-08-31T11:09:46;100919.22;;;16.09;85.92
78671;BME280;68277;52.724;6.516;2023-08-31T11:12:13;100910.03;;;15.96;82.96
78671;BME280;68277;52.724;6.516;2023-08-31T11:14:39;100932.06;;;16.01;82.82
78671;BME280;68277;52.724;6.516;2023-08-31T11:17:05;100900.94;;;15.80;82.70
78671;BME280;68277;52.724;6.516;2023-08-31T11:19:35;100939.19;;;16.00;83.36
78671;BME280;68277;52.724;6.516;2023-08-31T11:22:02;100919.22;;;15.89;83.99
78671;BME280;68277;52.724;6.516;2023-08-31T11:24:33;100924.97;;;15.80;84.37
78671;BME280;68277;52.724;6.516;2023-08-31T11:26:59;100948.50;;;15.90;89.87
78671;BME280;68277;52.724;6.516;2023-08-31T11:29:25;100934.97;;;15.74;86.72
78671;BME280;68277;52.724;6.516;2023-08-31T11:31:51;100971.75;;;15.88;86.84
78671;BME280;68277;52.724;6.516;2023-08-31T11:34:18;100958.38;;;15.68;87.25
78671;BME280;68277;52.724;6.516;2023-08-31T11:36:45;100958.38;;;15.46;91.38
78671;BME280;68277;52.724;6.516;2023-08-31T11:39:12;100979.66;;;15.25;91.42
78671;BME280;68277;52.724;6.516;2023-08-31T11:41:38;100954.56;;;14.85;90.09
78671;BME280;68277;52.724;6.516;2023-08-31T11:44:12;100953.50;;;14.66;90.93
78671;BME280;68277;52.724;6.516;2023-08-31T11:46:39;100970.94;;;14.75;89.44
78671;BME280;68277;52.724;6.516;2023-08-31T11:49:06;100931.56;;;14.60;90.04
78671;BME280;68277;52.724;6.516;2023-08-31T11:51:33;100922.06;;;14.76;90.15
78671;BME280;68277;52.724;6.516;2023-08-31T11:54:01;100925.84;;;15.37;89.60
78671;BME280;68277;52.724;6.516;2023-08-31T11:56:46;100949.72;;;15.83;88.43
78671;BME280;68277;52.724;6.516;2023-08-31T11:59:18;100943.94;;;16.14;87.20
78671;BME280;68277;52.724;6.516;2023-08-31T12:01:46;100942.47;;;16.27;88.11
78671;BME280;68277;52.724;6.516;2023-08-31T12:04:24;100955.28;;;16.98;84.47
78671;BME280;68277;52.724;6.516;2023-08-31T12:07:01;100926.34;;;17.06;83.11
78671;BME280;68277;52.724;6.516;2023-08-31T12:09:30;100949.06;;;16.97;83.87
78671;BME280;68277;52.724;6.516;2023-08-31T12:11:56;100953.19;;;16.66;84.68
78671;BME280;68277;52.724;6.516;2023-08-31T12:14:24;100959.69;;;16.40;85.52
78671;BME280;68277;52.724;6.516;2023-08-31T12:16:50;100966.03;;;16.17;85.50
78671;BME280;68277;52.724;6.516;2023-08-31T12:19:16;100959.81;;;15.97;86.33
78671;BME280;68277;52.724;6.516;2023-08-31T12:21:42;100968.16;;;15.89;87.55
78671;BME280;68277;52.724;6.516;2023-08-31T12:24:09;100963.72;;;15.68;87.43
78671;BME280;68277;52.724;6.516;2023-08-31T12:26:35;100972.72;;;15.65;88.99
78671;BME280;68277;52.724;6.516;2023-08-31T12:29:01;100989.81;;;15.60;90.10
78671;BME280;68277;52.724;6.516;2023-08-31T12:31:28;100993.28;;;15.62;89.90
78671;BME280;68277;52.724;6.516;2023-08-31T12:33:53;100973.38;;;15.49;88.52
78671;BME280;68277;52.724;6.516;2023-08-31T12:36:19;100979.94;;;15.62;87.96
78671;BME280;68277;52.724;6.516;2023-08-31T12:38:44;100987.41;;;15.76;88.62
78671;BME280;68277;52.724;6.516;2023-08-31T12:41:10;100942.00;;;15.55;87.41
78671;BME280;68277;52.724;6.516;2023-08-31T12:43:35;100946.56;;;15.73;86.15
78671;BME280;68277;52.724;6.516;2023-08-31T12:46:01;100933.41;;;15.69;85.82
78671;BME280;68277;52.724;6.516;2023-08-31T12:48:26;100968.13;;;16.11;85.32
78671;BME280;68277;52.724;6.516;2023-08-31T12:50:55;100975.25;;;16.51;83.95
78671;BME280;68277;52.724;6.516;2023-08-31T12:53:23;100948.09;;;17.17;82.85
78671;BME280;68277;52.724;6.516;2023-08-31T12:55:49;100946.50;;;18.03;81.62